Time;durP1;ratioP1;P1;durP2;ratioP2;P2;SDS_P1;SDS_P2;PMS_P1;PMS_P2;Temp;Humidity;BMP_temperature;BMP_pressure;BME280_temperature;BME280_humidity;BME280_pressure;Samples;Min_cycle;Max_cycle;Signal;HPM_P1;HPM_P2
2022/04/18 00:00:32;;;;;;;9.40;4.78;;;4.20;99.90;;;;;;5031685;28;20026;-86
2022/04/18 00:03:04;;;;;;;7.05;3.97;;;4.10;99.90;;;;;;4998052;28;20022;-85
2022/04/18 00:05:31;;;;;;;10.65;4.15;;;4.10;99.90;;;;;;4998464;28;20516;-86
2022/04/18 00:07:57;;;;;;;8.55;4.00;;;4.10;99.90;;;;;;4998026;28;20065;-86
2022/04/18 00:10:22;;;;;;;8.77;3.97;;;4.10;99.90;;;;;;5014741;28;20041;-85
2022/04/18 00:12:48;;;;;;;10.18;5.53;;;4.00;99.90;;;;;;5014952;28;20030;-85
2022/04/18 00:15:14;;;;;;;8.30;4.65;;;3.90;99.90;;;;;;4998334;28;20393;-86
2022/04/18 00:17:41;;;;;;;9.13;4.78;;;3.80;99.90;;;;;;4997966;28;20026;-86
2022/04/18 00:20:07;;;;;;;6.15;4.05;;;3.80;99.90;;;;;;4997962;28;20061;-86
2022/04/18 00:22:33;;;;;;;7.22;4.68;;;3.70;99.90;;;;;;4998395;28;20698;-85
2022/04/18 00:24:58;;;;;;;7.28;4.63;;;3.70;99.90;;;;;;4998289;28;20128;-86
2022/04/18 00:27:24;;;;;;;7.82;5.00;;;3.60;99.90;;;;;;4998262;28;20036;-86
2022/04/18 00:29:50;;;;;;;11.38;5.75;;;3.60;99.90;;;;;;4998321;28;20085;-86
2022/04/18 00:32:17;;;;;;;11.18;5.63;;;3.50;99.90;;;;;;5031171;28;20034;-86
2022/04/18 00:34:43;;;;;;;13.95;6.00;;;3.60;99.90;;;;;;4998162;28;20033;-86
2022/04/18 00:37:09;;;;;;;10.10;5.88;;;3.60;99.90;;;;;;4997252;28;20500;-85
2022/04/18 00:39:35;;;;;;;12.23;5.95;;;3.50;99.90;;;;;;4981897;28;20124;-85
2022/04/18 00:42:01;;;;;;;9.68;5.63;;;3.40;99.90;;;;;;4997824;28;20033;-85
2022/04/18 00:44:28;;;;;;;14.35;6.88;;;3.40;99.90;;;;;;4998119;28;20595;-85
2022/04/18 00:46:54;;;;;;;12.00;7.05;;;3.40;99.90;;;;;;4997914;28;20018;-85
2022/04/18 00:49:20;;;;;;;12.85;7.13;;;3.40;99.90;;;;;;4997451;28;20036;-85
2022/04/18 00:51:46;;;;;;;15.93;6.78;;;3.40;99.90;;;;;;4997392;28;20401;-85
2022/04/18 00:54:13;;;;;;;10.60;6.65;;;3.40;99.90;;;;;;4981012;28;20026;-85
2022/04/18 00:56:40;;;;;;;13.95;6.75;;;3.50;99.90;;;;;;4997327;28;20413;-86
2022/04/18 00:59:06;;;;;;;13.43;7.30;;;3.40;99.90;;;;;;4980964;28;20061;-85
2022/04/18 01:01:32;;;;;;;15.30;6.88;;;3.40;99.90;;;;;;4997467;28;20109;-85
2022/04/18 01:03:58;;;;;;;10.48;6.97;;;3.40;99.90;;;;;;4997172;28;20053;-85
2022/04/18 01:06:24;;;;;;;10.88;6.03;;;3.40;99.90;;;;;;4997399;28;20389;-85
2022/04/18 01:08:50;;;;;;;12.57;6.43;;;3.40;99.90;;;;;;4996844;28;20034;-86
2022/04/18 01:11:16;;;;;;;9.02;6.00;;;3.30;99.90;;;;;;4997460;28;20033;-86
2022/04/18 01:14:02;;;;;;;11.52;6.75;;;3.40;99.90;;;;;;5015420;28;20145;-85
2022/04/18 01:16:51;;;;;;;13.13;5.82;;;3.40;99.90;;;;;;5025697;28;20135;-86
2022/04/18 01:19:36;;;;;;;9.90;6.22;;;3.50;99.90;;;;;;4997355;28;20821;-86
2022/04/18 01:22:25;;;;;;;13.15;6.40;;;3.50;99.90;;;;;;4997450;28;20102;-85
2022/04/18 01:30:23;;;;;;;10.20;5.63;;;3.60;99.90;;;;;;5012558;28;20034;-86
2022/04/18 01:32:50;;;;;;;11.40;5.95;;;3.70;99.90;;;;;;4997091;28;20029;-84
2022/04/18 01:35:16;;;;;;;14.88;6.47;;;3.70;99.90;;;;;;4980426;28;20062;-84
2022/04/18 01:37:41;;;;;;;14.38;6.22;;;3.60;99.90;;;;;;4996396;28;20073;-84
2022/04/18 01:40:11;;;;;;;11.57;6.38;;;3.60;99.90;;;;;;4996626;28;20481;-84
2022/04/18 01:42:37;;;;;;;14.82;6.70;;;3.60;99.90;;;;;;4995891;28;20034;-84
2022/04/18 01:45:03;;;;;;;12.57;6.68;;;3.60;99.90;;;;;;4996333;28;20034;-84
2022/04/18 01:47:29;;;;;;;10.25;6.13;;;3.70;99.90;;;;;;4996179;28;20030;-84
2022/04/18 01:50:14;;;;;;;9.30;5.95;;;3.80;99.90;;;;;;4996034;28;20037;-84
2022/04/18 01:52:39;;;;;;;12.55;6.18;;;3.80;99.90;;;;;;4996149;28;20437;-84
2022/04/18 01:55:11;;;;;;;10.85;5.60;;;3.80;99.90;;;;;;4979396;28;20117;-84
2022/04/18 01:57:38;;;;;;;12.80;5.88;;;3.70;99.90;;;;;;4995527;28;20074;-84
2022/04/18 02:00:04;;;;;;;8.90;5.50;;;3.60;99.90;;;;;;4995376;28;20509;-84
2022/04/18 02:02:39;;;;;;;12.65;5.93;;;3.50;99.90;;;;;;5013559;28;20041;-84
2022/04/18 02:05:07;;;;;;;10.77;5.97;;;3.50;99.90;;;;;;4996157;28;20026;-84
2022/04/18 02:07:33;;;;;;;13.60;5.45;;;3.40;99.90;;;;;;4995606;28;20033;-84
2022/04/18 02:09:59;;;;;;;12.68;5.70;;;3.40;99.90;;;;;;4996027;28;20034;-84
2022/04/18 02:12:25;;;;;;;12.30;5.32;;;3.30;99.90;;;;;;4995871;28;20396;-84
2022/04/18 02:15:01;;;;;;;10.52;5.75;;;3.30;99.90;;;;;;4995735;28;20512;-84
2022/04/18 02:17:30;;;;;;;11.30;6.32;;;3.40;99.90;;;;;;4995601;28;20389;-84
2022/04/18 02:19:56;;;;;;;12.18;6.25;;;3.30;99.90;;;;;;4995745;28;20744;-84
2022/04/18 02:22:23;;;;;;;15.63;6.10;;;3.20;99.90;;;;;;4995671;28;20026;-84
2022/04/18 02:24:49;;;;;;;11.10;5.80;;;3.00;99.90;;;;;;5028422;28;20068;-84
2022/04/18 02:27:16;;;;;;;9.50;5.95;;;2.90;99.90;;;;;;4995322;28;20030;-84
2022/04/18 02:29:46;;;;;;;13.77;5.68;;;2.90;99.90;;;;;;5028439;28;20022;-84
2022/04/18 02:34:56;;;;;;;8.95;5.40;;;2.70;99.90;;;;;;5011937;28;20030;-84
2022/04/18 02:37:22;;;;;;;9.13;4.72;;;2.70;99.90;;;;;;4995211;28;20100;-84
2022/04/18 02:39:48;;;;;;;9.63;5.15;;;2.70;99.90;;;;;;4995491;28;20034;-84
2022/04/18 02:42:13;;;;;;;9.80;5.00;;;2.60;99.90;;;;;;4995042;28;20026;-84
2022/04/18 02:44:45;;;;;;;8.15;4.93;;;2.60;99.90;;;;;;4995068;28;20117;-84
2022/04/18 02:47:11;;;;;;;11.10;5.15;;;2.60;99.90;;;;;;4994951;28;20026;-84
2022/04/18 02:49:37;;;;;;;13.00;6.53;;;2.50;99.90;;;;;;4994360;28;20040;-84
2022/04/18 02:52:05;;;;;;;9.15;5.30;;;2.50;99.90;;;;;;4995383;28;20026;-84
2022/04/18 02:54:31;;;;;;;12.40;5.07;;;2.60;99.90;;;;;;4995549;28;20054;-84
2022/04/18 02:56:56;;;;;;;10.82;4.85;;;2.60;99.90;;;;;;5027771;28;20110;-84
2022/04/18 02:59:22;;;;;;;13.50;5.03;;;2.60;99.90;;;;;;4994936;28;20525;-84
2022/04/18 03:01:48;;;;;;;10.88;5.10;;;2.60;99.90;;;;;;4995264;28;20026;-84
2022/04/18 03:04:13;;;;;;;9.35;4.78;;;2.60;99.90;;;;;;4995433;28;20493;-84
2022/04/18 03:06:40;;;;;;;9.38;4.68;;;2.60;99.90;;;;;;4994882;28;20034;-84
2022/04/18 03:09:08;;;;;;;8.15;4.47;;;2.70;99.90;;;;;;4994852;28;20149;-85
2022/04/18 03:11:33;;;;;;;11.77;5.35;;;2.60;99.90;;;;;;5011232;28;20116;-84
2022/04/18 03:14:14;;;;;;;8.50;4.45;;;2.60;99.90;;;;;;4995115;28;20028;-84
2022/04/18 03:16:41;;;;;;;12.75;5.43;;;2.50;99.90;;;;;;4978961;28;20034;-84
2022/04/18 03:19:08;;;;;;;8.32;4.70;;;2.40;99.90;;;;;;4994509;28;20085;-84
2022/04/18 03:21:40;;;;;;;11.13;4.68;;;2.40;99.90;;;;;;4994743;28;20022;-84
2022/04/18 03:24:09;;;;;;;7.60;5.05;;;2.50;99.90;;;;;;5010274;28;20508;-84
2022/04/18 03:26:37;;;;;;;7.13;4.30;;;2.50;99.90;;;;;;4994529;28;20481;-84
2022/04/18 03:29:09;;;;;;;;;;;2.40;99.90;;;;;;4995182;28;20034;-84
2022/04/18 03:31:36;;;;;;;13.88;5.05;;;2.40;99.90;;;;;;4994939;28;20576;-84
2022/04/18 03:34:02;;;;;;;9.30;5.30;;;2.30;99.90;;;;;;4994584;28;20034;-84
2022/04/18 03:41:56;;;;;;;9.40;5.35;;;2.10;99.90;;;;;;5027273;28;20445;-84
2022/04/18 03:44:22;;;;;;;11.43;4.78;;;2.10;99.90;;;;;;4994440;28;20038;-84
2022/04/18 03:46:48;;;;;;;12.88;5.45;;;2.00;99.90;;;;;;4994341;28;20485;-84
2022/04/18 03:49:14;;;;;;;10.68;4.82;;;2.00;99.90;;;;;;4993964;28;20043;-84
2022/04/18 03:51:45;;;;;;;8.57;5.00;;;2.00;99.90;;;;;;4994449;28;20030;-84
2022/04/18 03:54:12;;;;;;;8.75;4.70;;;2.00;99.90;;;;;;5028788;28;20042;-84
2022/04/18 03:56:38;;;;;;;9.02;5.70;;;2.00;99.90;;;;;;5014289;28;20030;-84
2022/04/18 03:59:07;;;;;;;9.05;5.20;;;2.00;99.90;;;;;;5015123;28;20404;-84
2022/04/18 04:01:40;;;;;;;10.07;4.90;;;1.90;99.90;;;;;;5013934;28;20018;-84
2022/04/18 04:04:06;;;;;;;10.98;5.65;;;1.80;99.90;;;;;;4998343;28;20034;-84
2022/04/18 04:06:32;;;;;;;12.68;5.68;;;1.80;99.90;;;;;;5031114;28;20025;-85
2022/04/18 04:08:58;;;;;;;9.35;5.30;;;1.80;99.90;;;;;;4981063;28;20100;-84
2022/04/18 04:11:33;;;;;;;11.52;5.80;;;1.80;99.90;;;;;;4997980;28;20034;-84
2022/04/18 04:13:59;;;;;;;13.95;5.90;;;1.80;99.90;;;;;;5014431;28;20030;-84
2022/04/18 04:16:25;;;;;;;9.38;4.82;;;1.90;99.90;;;;;;4998000;28;20374;-84
2022/04/18 04:18:54;;;;;;;14.98;5.60;;;2.10;99.90;;;;;;4997776;28;20099;-84
2022/04/18 04:21:20;;;;;;;11.27;5.00;;;2.10;99.90;;;;;;4997657;28;20026;-84
2022/04/18 04:23:46;;;;;;;12.48;5.22;;;2.10;99.90;;;;;;4997631;28;20064;-84
2022/04/18 04:26:24;;;;;;;9.75;5.45;;;2.00;99.90;;;;;;5029230;28;20038;-84
2022/04/18 04:28:52;;;;;;;9.10;4.75;;;2.00;99.90;;;;;;4997456;28;20030;-84
2022/04/18 04:31:25;;;;;;;10.15;5.28;;;2.00;99.90;;;;;;4997583;28;20062;-82
2022/04/18 04:33:52;;;;;;;10.30;5.15;;;2.00;99.90;;;;;;5029926;28;20556;-82
2022/04/18 04:36:18;;;;;;;11.40;5.32;;;2.00;99.90;;;;;;4979642;28;20042;-82
2022/04/18 04:38:45;;;;;;;11.80;5.57;;;2.10;99.90;;;;;;4996399;28;20033;-82
2022/04/18 04:41:20;;;;;;;9.85;5.55;;;2.20;99.90;;;;;;4996651;28;20030;-82
2022/04/18 04:44:07;;;;;;;12.57;5.38;;;2.20;99.90;;;;;;4996032;28;20030;-82
2022/04/18 04:46:56;;;;;;;7.50;4.45;;;2.30;99.90;;;;;;4998019;28;20061;-82
2022/04/18 04:49:51;;;;;;;12.10;5.70;;;2.30;99.90;;;;;;4995421;28;20041;-82
2022/04/18 04:52:23;;;;;;;9.00;5.13;;;2.30;99.90;;;;;;5010470;28;20401;-82
2022/04/18 04:54:50;;;;;;;16.35;5.35;;;2.30;99.90;;;;;;4995214;28;20028;-82
2022/04/18 04:57:22;;;;;;;12.63;5.45;;;2.40;99.90;;;;;;4996359;28;20026;-82
2022/04/18 05:00:06;;;;;;;9.43;5.50;;;2.50;99.90;;;;;;4999565;28;20559;-82
2022/04/18 05:02:50;;;;;;;8.80;5.13;;;2.50;99.90;;;;;;4996766;28;20104;-82
2022/04/18 05:05:16;;;;;;;11.63;5.25;;;2.40;99.90;;;;;;4995204;28;20621;-82
2022/04/18 05:07:42;;;;;;;10.10;5.10;;;2.50;99.90;;;;;;5028444;28;20083;-82
2022/04/18 05:10:15;;;;;;;9.20;5.10;;;2.50;99.90;;;;;;4980967;28;20576;-82
2022/04/18 05:12:42;;;;;;;9.73;5.15;;;2.60;99.90;;;;;;4996178;28;20712;-81
2022/04/18 05:15:08;;;;;;;8.55;4.38;;;2.60;99.90;;;;;;5012296;28;20048;-82
2022/04/18 05:18:00;;;;;;;15.60;5.00;;;2.70;99.90;;;;;;4999946;28;20030;-82
2022/04/18 05:20:26;;;;;;;10.00;4.90;;;2.80;99.90;;;;;;5012486;28;20125;-82
2022/04/18 05:22:55;;;;;;;15.48;5.38;;;2.90;99.90;;;;;;5011802;28;20486;-82
2022/04/18 05:25:22;;;;;;;10.68;5.88;;;3.00;99.90;;;;;;4995940;28;20420;-82
2022/04/18 05:27:48;;;;;;;8.77;4.70;;;3.00;99.90;;;;;;4979402;28;20030;-82
2022/04/18 05:30:27;;;;;;;16.95;7.70;;;3.20;99.90;;;;;;5011751;28;20034;-82
2022/04/18 05:32:54;;;;;;;13.25;5.40;;;3.40;99.90;;;;;;5012360;28;20055;-82
2022/04/18 05:35:20;;;;;;;15.20;6.13;;;3.40;99.90;;;;;;4995921;28;20029;-82
2022/04/18 05:37:47;;;;;;;10.02;5.75;;;3.50;99.90;;;;;;4995530;28;20034;-82
2022/04/18 05:40:39;;;;;;;9.63;4.95;;;3.60;99.90;;;;;;5012176;28;20029;-84
2022/04/18 05:43:05;;;;;;;8.23;4.43;;;3.70;99.90;;;;;;4995729;28;20029;-84
2022/04/18 05:45:33;;;;;;;10.48;4.75;;;3.90;99.90;;;;;;4991732;28;20089;-82
2022/04/18 05:48:08;;;;;;;9.10;4.75;;;4.00;99.90;;;;;;5010423;28;20030;-82
2022/04/18 05:50:45;;;;;;;8.52;4.68;;;4.20;99.90;;;;;;4995891;28;20480;-82
2022/04/18 05:53:28;;;;;;;9.52;4.85;;;4.40;99.90;;;;;;5009163;28;20704;-82
2022/04/18 05:56:12;;;;;;;10.70;4.65;;;4.50;99.90;;;;;;4998306;28;20548;-81
2022/04/18 05:58:45;;;;;;;7.40;4.20;;;4.60;99.90;;;;;;4991580;28;20029;-82
2022/04/18 06:01:35;;;;;;;12.30;4.47;;;4.60;99.90;;;;;;4982001;28;20030;-82
2022/04/18 06:04:08;;;;;;;10.68;4.88;;;4.80;99.90;;;;;;4996588;28;20022;-82
2022/04/18 06:06:34;;;;;;;6.85;4.18;;;5.10;99.90;;;;;;4995489;28;20481;-84
2022/04/18 06:09:00;;;;;;;8.95;5.32;;;5.20;99.90;;;;;;5011053;28;20081;-84
2022/04/18 06:11:27;;;;;;;11.88;5.82;;;5.40;99.90;;;;;;4995256;28;20596;-83
2022/04/18 06:14:07;;;;;;;13.88;5.28;;;5.50;99.90;;;;;;4994723;28;20029;-83
2022/04/18 06:16:36;;;;;;;8.00;5.07;;;5.80;99.90;;;;;;4994717;28;20636;-83
2022/04/18 06:19:03;;;;;;;10.18;4.97;;;5.90;99.90;;;;;;4978772;28;20069;-83
2022/04/18 06:21:29;;;;;;;11.25;5.10;;;6.00;99.90;;;;;;4994931;28;20430;-84
2022/04/18 06:23:55;;;;;;;11.70;4.43;;;6.00;99.90;;;;;;4995377;28;20029;-83
2022/04/18 06:26:58;;;;;;;9.73;5.03;;;6.10;99.90;;;;;;4995219;28;20177;-82
2022/04/18 06:29:25;;;;;;;;;;;6.20;99.90;;;;;;4995550;28;20037;-82
2022/04/18 06:32:06;;;;;;;11.35;5.05;;;6.20;99.90;;;;;;4994558;28;19910;-84
2022/04/18 06:34:32;;;;;;;9.52;4.85;;;6.30;99.90;;;;;;5010994;28;20065;-83
2022/04/18 06:37:08;;;;;;;7.47;4.60;;;6.40;99.90;;;;;;4994863;28;20057;-83
2022/04/18 06:39:45;;;;;;;10.52;4.57;;;6.50;99.90;;;;;;4990178;28;20030;-83
2022/04/18 06:42:20;;;;;;;9.00;4.43;;;6.50;99.90;;;;;;4993585;28;20049;-82
2022/04/18 06:44:48;;;;;;;11.15;5.05;;;6.60;99.90;;;;;;4994692;28;20388;-82
2022/04/18 06:47:15;;;;;;;8.63;4.90;;;6.70;99.90;;;;;;4994846;28;20060;-83
2022/04/18 06:49:58;;;;;;;8.82;4.70;;;6.80;99.90;;;;;;4996997;28;20497;-84
2022/04/18 06:52:47;;;;;;;8.43;4.85;;;7.00;99.90;;;;;;4997512;28;20512;-83
2022/04/18 06:56:58;;;;;;;7.97;5.13;;;7.10;99.90;;;;;;5011823;28;20045;-83
2022/04/18 06:58:23;;;;;;;10.50;4.65;;;7.20;99.90;;;;;;5026887;28;20379;-82
2022/04/18 07:00:50;;;;;;;8.07;4.68;;;7.30;99.90;;;;;;4994449;28;20030;-83
2022/04/18 07:03:18;;;;;;;11.52;5.25;;;7.40;99.90;;;;;;5006402;28;20033;-83
2022/04/18 07:05:44;;;;;;;9.57;4.97;;;7.50;99.90;;;;;;4994503;28;20492;-82
2022/04/18 07:08:10;;;;;;;9.20;5.00;;;7.50;99.90;;;;;;4993653;28;20032;-83
2022/04/18 07:10:36;;;;;;;12.10;5.15;;;7.60;99.90;;;;;;4994321;28;20540;-82
2022/04/18 07:13:02;;;;;;;8.82;4.93;;;7.70;99.90;;;;;;4994814;28;20034;-82
2022/04/18 07:15:28;;;;;;;9.65;5.00;;;7.80;99.90;;;;;;4994690;28;20084;-83
2022/04/18 07:17:58;;;;;;;10.98;5.65;;;7.80;99.90;;;;;;4994171;28;20038;-82
2022/04/18 07:20:24;;;;;;;11.02;5.47;;;7.80;99.90;;;;;;4994577;28;20076;-82
2022/04/18 07:22:50;;;;;;;8.38;5.40;;;7.90;99.90;;;;;;4994338;28;20033;-84
2022/04/18 07:25:16;;;;;;;10.48;5.05;;;7.90;99.90;;;;;;4994391;28;20084;-83
2022/04/18 07:27:47;;;;;;;9.02;5.30;;;8.10;99.90;;;;;;4994651;28;20104;-83
2022/04/18 07:30:13;;;;;;;9.50;5.07;;;8.20;99.90;;;;;;4998075;28;20088;-82
2022/04/18 07:32:41;;;;;;;9.13;5.18;;;8.30;99.90;;;;;;4998027;28;20030;-83
2022/04/18 07:35:11;;;;;;;10.10;5.00;;;8.40;99.90;;;;;;4997077;28;20033;-83
2022/04/18 07:40:33;;;;;;;8.85;5.18;;;8.50;99.90;;;;;;5030382;28;20026;-83
2022/04/18 07:43:02;;;;;;;13.50;6.35;;;8.60;99.90;;;;;;4995136;28;20045;-83
2022/04/18 07:45:28;;;;;;;14.77;8.30;;;8.60;99.90;;;;;;4997830;28;20025;-83
2022/04/18 07:47:55;;;;;;;9.70;6.10;;;8.70;99.90;;;;;;4997214;28;20080;-83
2022/04/18 07:51:31;;;;;;;10.07;5.45;;;8.70;99.90;;;;;;4997809;28;20034;-83
2022/04/18 07:53:07;;;;;;;8.48;5.03;;;8.90;99.90;;;;;;5030367;28;20030;-83
2022/04/18 07:55:33;;;;;;;9.23;5.35;;;9.00;99.90;;;;;;4997206;28;20033;-83
2022/04/18 07:57:59;;;;;;;9.65;5.32;;;9.00;99.90;;;;;;4997108;28;20041;-84
2022/04/18 08:00:24;;;;;;;11.15;5.35;;;9.10;99.90;;;;;;5030031;28;20149;-84
2022/04/18 08:02:57;;;;;;;9.30;4.90;;;9.00;99.90;;;;;;5014944;28;20036;-84
2022/04/18 08:05:44;;;;;;;12.23;5.57;;;9.10;99.90;;;;;;5015113;28;20544;-84
2022/04/18 08:08:13;;;;;;;9.73;5.47;;;9.10;99.90;;;;;;4997217;28;20026;-84
2022/04/18 08:10:39;;;;;;;10.80;5.43;;;9.20;99.90;;;;;;4997405;28;20057;-84
2022/04/18 08:13:08;;;;;;;10.63;5.63;;;9.30;99.90;;;;;;4997688;28;20037;-83
2022/04/18 08:15:36;;;;;;;7.32;4.80;;;9.30;99.90;;;;;;5015188;28;20042;-84
2022/04/18 08:18:04;;;;;;;8.38;4.78;;;9.50;99.90;;;;;;4992230;28;20060;-83
2022/04/18 08:20:43;;;;;;;7.97;5.10;;;9.50;99.90;;;;;;4982512;28;20026;-84
2022/04/18 08:23:09;;;;;;;10.23;4.85;;;9.60;99.90;;;;;;4996900;28;20080;-84
2022/04/18 08:25:53;;;;;;;9.00;5.25;;;9.60;99.70;;;;;;5000112;28;20056;-83
2022/04/18 08:28:45;;;;;;;14.02;5.82;;;9.60;99.30;;;;;;4998772;28;20041;-83
2022/04/18 08:31:11;;;;;;;11.10;5.75;;;9.70;99.90;;;;;;4992452;28;20034;-84
2022/04/18 08:33:59;;;;;;;8.27;5.00;;;9.70;99.10;;;;;;4996206;28;20069;-84
2022/04/18 08:36:25;;;;;;;9.05;4.93;;;9.80;99.00;;;;;;4996411;28;20025;-84
2022/04/18 08:38:51;;;;;;;10.73;5.35;;;9.80;99.90;;;;;;5013394;28;20081;-84
2022/04/18 08:41:37;;;;;;;8.85;4.95;;;9.90;97.30;;;;;;4997051;28;20723;-83
2022/04/18 08:44:04;;;;;;;10.07;5.65;;;10.00;98.60;;;;;;4997186;28;20030;-83
2022/04/18 08:46:31;;;;;;;12.75;4.65;;;10.10;95.90;;;;;;4997694;28;20032;-83
2022/04/18 08:54:37;;;;;;;9.40;5.43;;;10.40;96.60;;;;;;5013557;28;20038;-83
2022/04/18 08:57:04;;;;;;;9.10;5.32;;;10.60;94.30;;;;;;5029726;28;20525;-83
2022/04/18 08:59:30;;;;;;;6.85;4.60;;;10.80;94.90;;;;;;4996763;28;20641;-83
2022/04/18 09:01:57;;;;;;;9.27;4.38;;;11.90;94.20;;;;;;4996397;28;20026;-84
2022/04/18 09:04:35;;;;;;;11.27;4.90;;;13.70;82.40;;;;;;4996925;28;20422;-84
2022/04/18 09:07:12;;;;;;;12.32;4.65;;;15.00;78.90;;;;;;4996416;28;20021;-84
2022/04/18 09:09:41;;;;;;;6.97;4.30;;;15.60;67.50;;;;;;4996652;28;20072;-83
2022/04/18 09:12:22;;;;;;;6.10;4.37;;;16.20;66.90;;;;;;4996390;28;20034;-84
2022/04/18 09:15:09;;;;;;;7.70;5.50;;;17.00;61.40;;;;;;4996104;28;20269;-83
2022/04/18 09:17:36;;;;;;;7.07;4.32;;;18.00;57.80;;;;;;4996186;28;20029;-83
2022/04/18 09:20:25;;;;;;;8.52;4.57;;;18.40;54.90;;;;;;4992344;28;20549;-83
2022/04/18 09:22:55;;;;;;;8.40;4.53;;;18.20;55.00;;;;;;4996463;28;20533;-83
2022/04/18 09:25:22;;;;;;;9.20;4.85;;;18.00;54.30;;;;;;4996282;28;20037;-83
2022/04/18 09:27:54;;;;;;;6.88;4.55;;;18.00;54.70;;;;;;5013278;28;20449;-83
2022/04/18 09:30:22;;;;;;;7.43;4.57;;;17.60;54.80;;;;;;5012111;28;20083;-84
2022/04/18 09:32:59;;;;;;;8.02;4.85;;;17.70;54.60;;;;;;4996382;28;20033;-83
2022/04/18 09:35:38;;;;;;;7.03;4.22;;;17.70;54.80;;;;;;4996428;28;20570;-84
2022/04/18 09:38:06;;;;;;;8.55;3.45;;;17.10;53.30;;;;;;5028692;28;20508;-83
2022/04/18 09:40:55;;;;;;;7.10;4.07;;;16.80;56.30;;;;;;4998396;28;20633;-84
2022/04/18 09:43:45;;;;;;;7.85;4.63;;;16.80;57.00;;;;;;4995817;28;20029;-83
2022/04/18 09:46:16;;;;;;;8.38;4.50;;;16.90;56.70;;;;;;4994727;28;20026;-83
2022/04/18 09:48:49;;;;;;;6.90;4.25;;;16.60;56.90;;;;;;5024618;28;20034;-84
2022/04/18 09:51:22;;;;;;;10.75;4.53;;;16.30;57.20;;;;;;4976789;28;20084;-84
2022/04/18 09:54:04;;;;;;;7.03;4.88;;;15.80;59.00;;;;;;4995845;28;20079;-84
2022/04/18 09:56:30;;;;;;;9.45;4.70;;;15.30;58.30;;;;;;5012213;28;20041;-84
2022/04/18 09:58:58;;;;;;;7.93;4.70;;;15.00;58.50;;;;;;4995626;28;20659;-83
2022/04/18 10:01:24;;;;;;;8.63;4.50;;;14.70;60.60;;;;;;5013005;28;20033;-83
2022/04/18 10:03:52;;;;;;;6.20;4.38;;;15.00;60.80;;;;;;4995210;28;20033;-83
2022/04/18 10:06:20;;;;;;;6.55;4.38;;;15.00;59.50;;;;;;5011561;28;20150;-83
2022/04/18 10:08:46;;;;;;;7.45;4.30;;;15.30;59.10;;;;;;5027840;28;20053;-83
2022/04/18 10:11:12;;;;;;;8.60;4.32;;;15.80;58.20;;;;;;4978823;28;20038;-83
2022/04/18 10:13:38;;;;;;;6.25;4.03;;;16.20;56.90;;;;;;4994779;28;20045;-83
2022/04/18 10:16:06;;;;;;;7.03;4.32;;;16.50;57.70;;;;;;5012575;28;20033;-83
2022/04/18 10:18:52;;;;;;;7.03;4.18;;;16.80;55.90;;;;;;4994781;28;20068;-83
2022/04/18 10:21:31;;;;;;;6.90;4.40;;;17.10;58.50;;;;;;5027422;28;20029;-83
2022/04/18 10:24:24;;;;;;;8.00;4.32;;;17.50;55.20;;;;;;4991663;28;20124;-83
2022/04/18 10:27:27;;;;;;;8.18;3.63;;;17.10;55.70;;;;;;5027551;28;20041;-83
2022/04/18 10:29:54;;;;;;;8.45;4.93;;;17.30;56.00;;;;;;5027370;28;20405;-83
2022/04/18 10:32:24;;;;;;;7.43;4.10;;;18.50;54.50;;;;;;4995017;28;20033;-83
2022/04/18 10:34:58;;;;;;;7.55;4.03;;;18.40;54.30;;;;;;4994815;28;20026;-83
2022/04/18 10:37:24;;;;;;;7.47;4.05;;;18.40;53.60;;;;;;4995036;28;20030;-83
2022/04/18 10:39:57;;;;;;;5.63;3.95;;;19.10;52.40;;;;;;4994850;28;20030;-84
2022/04/18 10:42:37;;;;;;;8.32;4.57;;;19.10;52.70;;;;;;5027768;28;20030;-83
2022/04/18 10:45:06;;;;;;;7.07;4.55;;;18.10;55.30;;;;;;4993521;28;20444;-83
2022/04/18 10:48:01;;;;;;;9.65;4.50;;;17.90;54.40;;;;;;5010781;28;20034;-83
2022/04/18 10:50:41;;;;;;;9.73;4.93;;;17.40;54.30;;;;;;5027759;28;20041;-83
2022/04/18 10:53:34;;;;;;;11.30;4.28;;;16.90;56.30;;;;;;5011483;28;20077;-83
2022/04/18 10:56:00;;;;;;;5.88;4.50;;;17.50;55.30;;;;;;4994123;28;20026;-83
2022/04/18 10:58:31;;;;;;;6.80;4.35;;;18.20;54.30;;;;;;5026751;28;20116;-83
2022/04/18 11:00:58;;;;;;;;;;;18.50;53.50;;;;;;5010905;28;20030;-83
2022/04/18 11:03:49;;;;;;;6.07;4.22;;;18.70;53.20;;;;;;5013257;28;19964;-83
2022/04/18 11:06:18;;;;;;;5.95;3.95;;;19.00;54.20;;;;;;4998661;28;20026;-83
2022/04/18 11:09:07;;;;;;;6.47;4.50;;;18.40;53.30;;;;;;4998243;28;20122;-84
2022/04/18 11:11:35;;;;;;;8.02;4.38;;;19.00;53.10;;;;;;4998595;28;20034;-84
2022/04/18 11:14:12;;;;;;;7.68;4.38;;;19.00;54.90;;;;;;4998884;28;20120;-83
2022/04/18 11:16:43;;;;;;;6.55;4.57;;;18.80;52.30;;;;;;4998906;28;20033;-83
2022/04/18 11:19:26;;;;;;;8.07;4.10;;;18.70;52.40;;;;;;5014560;28;20041;-84
2022/04/18 11:21:55;;;;;;;10.32;4.85;;;19.10;51.70;;;;;;4998558;28;20382;-84
2022/04/18 11:24:41;;;;;;;6.53;4.82;;;19.00;52.50;;;;;;5026878;28;20420;-84
2022/04/18 11:27:07;;;;;;;7.90;5.22;;;18.80;54.20;;;;;;4998397;28;20125;-83
2022/04/18 11:29:33;;;;;;;8.27;4.78;;;19.10;53.10;;;;;;5014974;28;20061;-83
2022/04/18 11:31:59;;;;;;;6.68;4.10;;;19.50;51.00;;;;;;4999003;28;20029;-83
2022/04/18 11:34:27;;;;;;;5.50;4.07;;;19.40;50.40;;;;;;4998507;28;20061;-84
2022/04/18 11:37:01;;;;;;;7.53;4.10;;;19.70;52.20;;;;;;4998259;28;20022;-84
2022/04/18 11:39:50;;;;;;;5.65;4.03;;;20.30;52.80;;;;;;4997374;28;20037;-84
2022/04/18 11:42:35;;;;;;;5.55;4.20;;;19.50;50.00;;;;;;4996243;28;20034;-84
2022/04/18 11:45:04;;;;;;;9.02;3.97;;;19.20;51.90;;;;;;4998480;28;20393;-84
2022/04/18 11:47:40;;;;;;;7.78;4.90;;;19.10;52.30;;;;;;5015841;28;20029;-83
2022/04/18 11:50:07;;;;;;;7.45;4.38;;;19.00;54.00;;;;;;4997826;28;20117;-83
2022/04/18 11:52:36;;;;;;;9.40;4.47;;;18.80;51.00;;;;;;5030834;28;20042;-83
2022/04/18 11:55:19;;;;;;;6.63;3.90;;;18.30;51.70;;;;;;5014088;28;20037;-83
2022/04/18 11:57:47;;;;;;;11.07;4.97;;;18.20;52.80;;;;;;5013738;28;20827;-83
2022/04/18 12:08:32;;;;;;;4.30;3.33;;;18.10;51.70;;;;;;5013981;28;20038;-83
2022/04/18 12:10:57;;;;;;;9.02;3.47;;;18.60;51.20;;;;;;4997847;28;20045;-83
2022/04/18 12:13:23;;;;;;;7.85;3.95;;;18.10;50.80;;;;;;4997663;28;20474;-83
2022/04/18 12:16:07;;;;;;;5.65;4.20;;;18.20;53.00;;;;;;4996899;28;20041;-83
2022/04/18 12:18:33;;;;;;;8.60;4.20;;;18.20;52.90;;;;;;5014979;28;20396;-83
2022/04/18 12:20:59;;;;;;;7.13;4.45;;;18.40;52.90;;;;;;4997783;28;20084;-83
2022/04/18 12:23:26;;;;;;;5.60;3.83;;;18.40;52.70;;;;;;5015415;28;20113;-83
2022/04/18 12:25:58;;;;;;;5.68;3.60;;;18.30;51.80;;;;;;4997750;28;20030;-83
2022/04/18 12:28:26;;;;;;;5.65;3.33;;;17.70;54.20;;;;;;4997317;28;20038;-83
2022/04/18 12:30:53;;;;;;;5.40;3.03;;;17.30;54.80;;;;;;4993035;28;20114;-83
2022/04/18 12:33:21;;;;;;;6.32;3.17;;;17.10;53.30;;;;;;4997276;28;20533;-83
2022/04/18 12:35:52;;;;;;;9.82;3.08;;;17.10;53.10;;;;;;4995992;28;20378;-83
2022/04/18 12:38:20;;;;;;;7.55;3.47;;;17.10;55.30;;;;;;5012015;28;20049;-83
2022/04/18 12:40:53;;;;;;;6.50;3.28;;;16.80;53.90;;;;;;4997405;28;20025;-83
2022/04/18 12:43:19;;;;;;;5.47;3.30;;;16.60;56.20;;;;;;5014916;28;20026;-83
2022/04/18 12:45:47;;;;;;;5.32;3.28;;;16.40;55.50;;;;;;5030108;28;20032;-83
2022/04/18 12:48:14;;;;;;;8.15;3.33;;;16.50;56.40;;;;;;4996175;28;20030;-83
2022/04/18 12:50:40;;;;;;;7.05;3.05;;;16.60;57.10;;;;;;4996933;28;20393;-82
2022/04/18 12:53:06;;;;;;;4.32;2.92;;;16.30;53.80;;;;;;5014553;28;20057;-83
2022/04/18 12:55:32;;;;;;;5.13;3.30;;;16.60;56.90;;;;;;4996705;28;20425;-83
2022/04/18 12:57:59;;;;;;;4.55;2.90;;;17.00;53.40;;;;;;4996502;28;20033;-83
2022/04/18 13:00:36;;;;;;;7.18;3.08;;;17.40;55.60;;;;;;4996878;28;20637;-83
2022/04/18 13:03:07;;;;;;;5.15;2.92;;;17.50;51.80;;;;;;4995585;28;20029;-83
2022/04/18 13:05:42;;;;;;;5.72;3.05;;;17.60;51.20;;;;;;4996627;28;20045;-83
2022/04/18 13:08:08;;;;;;;5.95;2.60;;;17.90;52.70;;;;;;4996362;28;20065;-82
2022/04/18 13:10:36;;;;;;;5.50;3.22;;;17.90;51.90;;;;;;5014055;28;20029;-83
2022/04/18 13:13:10;;;;;;;8.20;6.30;;;18.10;52.80;;;;;;4996249;28;20040;-83
2022/04/18 13:15:36;;;;;;;7.72;5.55;;;18.20;52.90;;;;;;4996124;28;20099;-83
2022/04/18 13:18:08;;;;;;;7.15;4.95;;;17.90;52.50;;;;;;4995907;28;20030;-83
2022/04/18 13:20:35;;;;;;;6.28;2.72;;;18.10;51.50;;;;;;4996070;28;20025;-83
2022/04/18 13:23:03;;;;;;;6.60;4.78;;;18.30;50.40;;;;;;5028750;28;20672;-83
2022/04/18 13:25:30;;;;;;;6.30;3.72;;;18.50;52.70;;;;;;5011584;28;20022;-83
2022/04/18 13:27:56;;;;;;;6.68;3.22;;;18.50;53.20;;;;;;5011845;28;20165;-83
2022/04/18 13:30:26;;;;;;;5.93;3.00;;;18.60;51.80;;;;;;4980075;28;20034;-83
2022/04/18 13:32:53;;;;;;;3.85;2.65;;;18.80;52.50;;;;;;4996466;28;20828;-84
2022/04/18 13:35:19;;;;;;;4.90;3.03;;;18.60;51.80;;;;;;4996373;28;20080;-83
2022/04/18 13:37:46;;;;;;;5.53;3.75;;;18.40;51.10;;;;;;4995855;28;20354;-83
2022/04/18 13:40:13;;;;;;;4.63;2.97;;;18.00;50.30;;;;;;5008886;28;20022;-83